Aviation Digital Data Service (ADDS)

Output produced by TAFs form (2156 UTC 23 March 2017)
found at http://aviationweather.gov/adds/tafs/
 
KELP 231724Z 2318/2418 22027G37KT P6SM FEW060 FEW150 
     FM232000 26032G45KT 2SM BLDU FEW060 
     TEMPO 2320/2324 26038G50KT 1SM BLDU 
     FM240200 29023G33KT P6SM FEW200